ADDS TAF Data INFO
IDs: Format: Raw Decoded Include METARs

Data at: 2043 UTC 15 Aug 2018

KTCS 151953Z AUTO 13007G16KT 10SM FEW100 34/07 A3008 RMK AO2 SLP084 T03440067

KTCS 151736Z 1518/1618 VRB05KT P6SM FEW250
  FM152000 17010KT P6SM SCT080 BKN200
  FM160300 25008KT P6SM FEW070 SCT120 BKN220